This is the latest recevied weather packets stored in our database for station/object IQ8VX-3. If no packets are shown the sender has not sent any weather packets the latest 10 day(s).
| Time | Temp. | Humidity | Pressure | Rain* | Wind** | Luminosity | Snow |
|---|---|---|---|---|---|---|---|
| 1777018523 | 23.89° C | 38% | 1719 hPa | - | - | - | - |
| 1777017322 | 26.67° C | 36% | 1725.5 hPa | - | - | - | - |
| 1777016122 | 27.78° C | 44% | 1730.4 hPa | - | - | - | - |
| 1777014922 | 18.89° C | 53% | 1705.2 hPa | - | - | - | - |
| 1777013721 | 17.78° C | 53% | 1701.9 hPa | - | - | - | - |
| 1777012521 | 18.33° C | 59% | 1704.6 hPa | - | - | - | - |
| 1777011321 | 17.78° C | 56% | 1702.6 hPa | - | - | - | - |
| 1777010120 | 20° C | 52% | 1708.6 hPa | - | - | - | - |
| 1777008920 | 27.78° C | 65% | 1730.8 hPa | - | - | - | - |
| 1777007720 | 21.11° C | 77% | 1712.7 hPa | - | - | - | - |
| 1777006519 | 12.78° C | 92% | 1690 hPa | - | - | - | - |
| 1777005319 | 9.44° C | 86% | 1680.7 hPa | - | - | - | - |
| 1777004119 | 9.44° C | 86% | 1680.6 hPa | - | - | - | - |
| 1777002919 | 10° C | 87% | 1681.1 hPa | - | - | - | - |
| 1777001718 | 10° C | 87% | 1681.9 hPa | - | - | - | - |
| 1777000518 | 10° C | 86% | 1681.6 hPa | - | - | - | - |
| 1776999318 | 10° C | 86% | 1682 hPa | - | - | - | - |
| 1776998117 | 10° C | 86% | 1681.7 hPa | - | - | - | - |
| 1776996917 | 10° C | 85% | 1682.2 hPa | - | - | - | - |
| 1776995717 | 10.56° C | 85% | 1682.4 hPa | - | - | - | - |
| 1776994516 | 10.56° C | 85% | 1683.1 hPa | - | - | - | - |
| 1776993316 | 10.56° C | 85% | 1683.6 hPa | - | - | - | - |
| 1776992116 | 11.11° C | 86% | 1684.3 hPa | - | - | - | - |
| 1776990915 | 11.11° C | 86% | 1684.9 hPa | - | - | - | - |
| 1776989715 | 11.11° C | 85% | 1684.2 hPa | - | - | - | - |
* Rain since midnight (hover to see other rain measurements)
** Current wind speed in m/s (hover to see current wind gust speed)